Edmonton Intl Arpt, Alberta

1:45 AM MST on February 26, 2017 (GMT -0700)
Willow Park | | Change Station

Elev 2385 ft 53.27 °N, 113.56 °W | Updated 3 minutes ago

Light Snow Showers
Light Showers Snow
20.1 °F
Feels Like 16 °F
N
3.1
Wind Variable Wind from NNW
Gusts 8.1 mph

Today
High -- | Low -- °F
--% Chance of Precip.
Yesterday
High -- | Low -- °F
Precip. -- in
Pressure 29.89 in
Visibility 10.0 miles
Clouds Few 1700 ft
Overcast 3200 ft
Windchill 16 °F
Dew Point 14 °F
Humidity 78%
Rainfall 0.00 in
Snow Depth Not available.
7:27 AM 6:07 PM
Waning Crescent, 0% visible
METAR CYEG 260800Z 33011KT 10SM -SHSN FEW017 OVC032 M07/M10 A2976 RMK SF1SC7 CVCTV CLD EMBD SLP122
Pressure 29.89 in
Visibility 10.0 miles
Clouds Few 1700 ft
Overcast 3200 ft
Windchill 16 °F
Dew Point 14 °F
Humidity 78%
Rainfall 0.00 in
Snow Depth Not available.
7:27 AM 6:07 PM
Waning Crescent, 0% visible
METAR CYEG 260800Z 33011KT 10SM -SHSN FEW017 OVC032 M07/M10 A2976 RMK SF1SC7 CVCTV CLD EMBD SLP122

Get Your Daily Forecast Email!

Thanks for signing up!

Be on the lookout for a verification email in your inbox.

You'll start receiving the daily forecast at 8 AM.

×

10-Day Weather Forecast

Almanac

Astronomy

Feb. 26, 2017 Rise Set
Actual Time
Civil Twilight
Nautical Twilight
Astronomical Twilight
Moon
Length of Visible Light
Length of Day
Tomorrow will be .
, % of the Moon is Illuminated

Today's Extremes

Country Highs Country Lows

Community

WunderPhotos

Upload Photos

1,962,540 photos uploaded!

WunderBlog® & News

Nearby

Air Quality

  Air Quality AQ Index Pollutant
Not available.

Snow Depth

Station Depth Elevation

Earthquake Activity

City Distance Mag. Time & Date
Minimum magnitude displayed is 2.5.

Coastal Water Temperatures

Place Temperature

Stations

Nearby Weather Stations

Station Location Temp. Windchill Dew Point Humidity Wind Precip. Elev Updated Type
                   

Watches & Warnings

There are currently no watches in effect.